Time;durP1;ratioP1;P1;durP2;ratioP2;P2;SDS_P1;SDS_P2;PMS_P1;PMS_P2;Temp;Humidity;BMP_temperature;BMP_pressure;BME280_temperature;BME280_humidity;BME280_pressure;Samples;Min_cycle;Max_cycle;Signal;HPM_P1;HPM_P2
2022/11/20 00:00:15;;;;;;;;;;;;;;;20.08;53.02;100476.38;105707;1288;19972;-63
2022/11/20 00:03:03;;;;;;;;;2.00;2.00;;;;;20.09;52.95;100473.23;105709;1271;18762;-62
2022/11/20 00:05:30;;;;;;;;;2.00;2.00;;;;;20.08;52.87;100472.09;105735;1281;21140;-64
2022/11/20 00:07:58;;;;;;;;;2.00;2.00;;;;;20.07;52.87;100472.84;105708;1297;20981;-63
2022/11/20 00:10:25;;;;;;;;;4.00;3.00;;;;;20.09;52.74;100474.25;105692;1281;18539;-65
2022/11/20 00:12:53;;;;;;;;;2.00;2.00;;;;;20.09;52.73;100474.66;105670;1300;20823;-62
2022/11/20 00:15:21;;;;;;;;;4.00;2.00;;;;;20.09;52.79;100477.05;105669;1287;19657;-63
2022/11/20 00:17:48;;;;;;;;;3.00;2.00;;;;;20.08;52.64;100476.61;105563;1272;148612;-63
2022/11/20 00:20:16;;;;;;;;;2.00;2.00;;;;;20.08;52.65;100478.05;105728;1295;20681;-62
2022/11/20 00:22:43;;;;;;;;;2.00;2.00;;;;;20.08;52.58;100475.19;105711;1289;18443;-62
2022/11/20 00:25:11;;;;;;;;;4.50;4.50;;;;;20.08;52.52;100478.05;105735;1272;20067;-64
2022/11/20 00:27:38;;;;;;;;;2.00;2.00;;;;;20.08;52.79;100479.71;105749;1295;19329;-62
2022/11/20 00:30:06;;;;;;;;;4.00;4.00;;;;;20.07;52.82;100478.90;105656;1280;22999;-62
2022/11/20 00:32:33;;;;;;;;;4.00;4.00;;;;;20.09;52.57;100481.40;105653;1279;20154;-62
2022/11/20 00:35:01;;;;;;;;;5.00;5.00;;;;;20.08;52.44;100484.53;105712;1281;20774;-63
2022/11/20 00:37:28;;;;;;;;;4.00;4.00;;;;;20.07;52.46;100483.73;105706;1295;28625;-64
2022/11/20 00:39:56;;;;;;;;;4.00;2.00;;;;;20.08;52.56;100485.16;105732;1297;18545;-63
2022/11/20 00:42:23;;;;;;;;;4.00;2.00;;;;;20.06;52.52;100483.20;105691;1289;22702;-62
2022/11/20 00:44:50;;;;;;;;;2.00;2.00;;;;;20.06;52.41;100481.23;105667;1297;19108;-64
2022/11/20 00:47:18;;;;;;;;;4.50;3.00;;;;;20.06;52.34;100480.77;105667;1297;19932;-63
2022/11/20 00:49:45;;;;;;;;;2.00;2.00;;;;;20.06;52.45;100478.84;105713;1271;20739;-65
2022/11/20 00:52:13;;;;;;;;;3.00;3.00;;;;;20.06;52.51;100479.05;105738;1296;18919;-64
2022/11/20 00:54:40;;;;;;;;;2.00;2.00;;;;;20.04;52.36;100479.05;105661;1271;18573;-64
2022/11/20 00:57:08;;;;;;;;;;;;;;;20.04;52.28;100481.73;105660;1271;26618;-63
2022/11/20 00:59:35;;;;;;;;;4.00;4.00;;;;;20.04;52.29;100483.60;105701;1282;19608;-62
2022/11/20 01:02:02;;;;;;;;;4.00;4.00;;;;;20.04;52.43;100480.68;105683;1296;18892;-63
2022/11/20 01:04:30;;;;;;;;;4.00;2.00;;;;;20.05;52.33;100482.42;105703;1287;19751;-64
2022/11/20 01:06:57;;;;;;;;;4.50;4.50;;;;;20.05;52.42;100479.36;105696;1297;22435;-63
2022/11/20 01:09:25;;;;;;;;;4.00;4.00;;;;;20.04;52.38;100474.94;105718;1279;18537;-63
2022/11/20 01:11:52;;;;;;;;;4.00;2.00;;;;;20.04;52.35;100474.15;105714;1291;19207;-64
2022/11/20 01:14:20;;;;;;;;;4.00;4.00;;;;;20.04;52.42;100472.89;105696;1281;18628;-64
2022/11/20 01:16:48;;;;;;;;;4.00;4.00;;;;;20.04;52.22;100472.35;105672;1288;18553;-62
2022/11/20 01:19:15;;;;;;;;;;;;;;;20.02;52.18;100469.85;105732;1296;24156;-64
2022/11/20 01:21:42;;;;;;;;;4.00;2.00;;;;;20.03;52.43;100466.85;105630;1297;18762;-64
2022/11/20 01:24:10;;;;;;;;;4.00;4.00;;;;;20.04;52.30;100464.63;105653;1295;18494;-64
2022/11/20 01:26:37;;;;;;;;;2.00;2.00;;;;;20.02;52.10;100467.84;105637;1294;22259;-64
2022/11/20 01:29:05;;;;;;;;;2.00;2.00;;;;;20.03;52.13;100465.80;105699;1295;19590;-64
2022/11/20 01:31:32;;;;;;;;;;;;;;;20.02;52.13;100465.88;105722;1296;19970;-62
2022/11/20 01:34:00;;;;;;;;;2.00;2.00;;;;;20.01;52.00;100463.95;105775;1297;22783;-61
2022/11/20 01:36:27;;;;;;;;;2.00;2.00;;;;;20.02;52.02;100461.55;105700;1281;19250;-62
2022/11/20 01:38:54;;;;;;;;;2.00;2.00;;;;;20.00;52.11;100462.93;105669;1272;19876;-63
2022/11/20 01:44:07;;;;;;;;;4.50;4.00;;;;;20.01;52.02;100461.63;105626;1280;19660;-63
2022/11/20 01:46:35;;;;;;;;;4.50;4.00;;;;;20.02;52.16;100463.36;105543;1296;20417;-63
2022/11/20 01:49:02;;;;;;;;;4.00;4.00;;;;;20.01;51.97;100462.14;105691;1297;20710;-63
2022/11/20 01:51:29;;;;;;;;;4.00;2.00;;;;;20.01;52.18;100462.89;105677;1295;22189;-62
2022/11/20 01:53:57;;;;;;;;;3.00;2.00;;;;;20.00;51.89;100464.49;105687;1297;18510;-62
2022/11/20 01:56:24;;;;;;;;;2.00;2.00;;;;;20.00;52.09;100464.80;105592;1282;22696;-63
2022/11/20 01:58:52;;;;;;;;;2.00;2.00;;;;;19.99;51.98;100468.31;105660;1297;18314;-64
2022/11/20 02:01:19;;;;;;;;;4.00;4.00;;;;;20.00;52.00;100467.21;105704;1296;20011;-63
2022/11/20 02:03:47;;;;;;;;;2.00;2.00;;;;;20.00;51.95;100467.86;105649;1289;22691;-63
2022/11/20 02:06:14;;;;;;;;;2.00;2.00;;;;;19.99;52.11;100466.41;105670;1273;19119;-63
2022/11/20 02:08:41;;;;;;;;;5.00;2.00;;;;;19.99;51.85;100468.38;105699;1297;18498;-63
2022/11/20 02:11:09;;;;;;;;;2.00;2.00;;;;;19.99;51.92;100461.13;105692;1276;20950;-64
2022/11/20 02:13:46;;;;;;;;;2.00;2.00;;;;;19.98;51.83;100457.77;105701;1279;22185;-63
2022/11/20 02:16:13;;;;;;;;;2.00;2.00;;;;;19.99;51.98;100460.55;105725;1287;18588;-63
2022/11/20 02:18:40;;;;;;;;;4.00;4.00;;;;;19.99;51.91;100458.77;105673;1279;21679;-61
2022/11/20 02:21:08;;;;;;;;;2.00;2.00;;;;;19.99;51.70;100458.38;105637;1300;18549;-63
2022/11/20 02:23:35;;;;;;;;;5.00;4.00;;;;;19.99;51.81;100453.83;105676;1274;20036;-63
2022/11/20 02:26:03;;;;;;;;;4.00;4.00;;;;;19.99;51.69;100451.30;105669;1295;19166;-62
2022/11/20 02:28:30;;;;;;;;;2.00;2.00;;;;;19.99;51.89;100452.27;105664;1279;19697;-63
2022/11/20 02:30:57;;;;;;;;;2.00;2.00;;;;;19.99;51.80;100448.45;105720;1295;25399;-62
2022/11/20 02:33:25;;;;;;;;;2.00;2.00;;;;;19.99;51.88;100447.50;105669;1275;19451;-63
2022/11/20 02:35:52;;;;;;;;;5.00;5.00;;;;;19.99;51.76;100439.91;105699;1289;18436;-63
2022/11/20 02:38:20;;;;;;;;;4.00;4.00;;;;;19.98;51.64;100441.96;105686;1296;21883;-63
2022/11/20 02:40:47;;;;;;;;;3.33;2.67;;;;;19.98;51.66;100443.96;105667;1278;20883;-62
2022/11/20 02:43:15;;;;;;;;;4.00;2.00;;;;;19.97;51.55;100444.95;105734;1296;18589;-64
2022/11/20 02:45:42;;;;;;;;;4.50;4.50;;;;;19.98;51.63;100446.04;105700;1280;18508;-62
2022/11/20 02:48:09;;;;;;;;;3.00;2.00;;;;;19.97;51.60;100442.42;105680;1287;20963;-62
2022/11/20 02:50:37;;;;;;;;;4.00;2.00;;;;;19.97;51.67;100437.59;105648;1296;21744;-63
2022/11/20 02:53:04;;;;;;;;;5.00;4.00;;;;;19.97;51.65;100439.94;105645;1279;22315;-63
2022/11/20 02:55:32;;;;;;;;;2.00;2.00;;;;;19.97;51.75;100438.85;105698;1295;19291;-63
2022/11/20 02:57:59;;;;;;;;;;;;;;;19.97;51.58;100440.65;105699;1288;19632;-63
2022/11/20 03:00:27;;;;;;;;;2.00;2.00;;;;;19.96;51.65;100438.42;105666;1297;18255;-63
2022/11/20 03:02:54;;;;;;;;;2.00;2.00;;;;;19.96;51.59;100440.05;105710;1298;19336;-63
2022/11/20 03:05:22;;;;;;;;;2.00;2.00;;;;;19.97;51.47;100443.70;105706;1295;18636;-62
2022/11/20 03:07:49;;;;;;;;;2.00;2.00;;;;;19.96;51.52;100442.82;105707;1288;18550;-64
2022/11/20 03:10:16;;;;;;;;;4.00;4.00;;;;;19.95;51.69;100442.14;105739;1297;19310;-64
2022/11/20 03:12:45;;;;;;;;;1.00;1.00;;;;;19.95;51.67;100442.17;105693;1281;19624;-61
2022/11/20 03:15:12;;;;;;;;;2.00;2.00;;;;;19.96;51.50;100442.94;105667;1297;19402;-62
2022/11/20 03:17:40;;;;;;;;;4.00;4.00;;;;;19.94;51.68;100442.63;105718;1288;19326;-62
2022/11/20 03:20:07;;;;;;;;;2.00;2.00;;;;;19.94;51.42;100440.11;105680;1279;22621;-62
2022/11/20 03:22:35;;;;;;;;;2.00;2.00;;;;;19.95;51.56;100438.73;105668;1295;18985;-62
2022/11/20 03:25:02;;;;;;;;;2.00;2.00;;;;;19.95;51.69;100437.65;105722;1297;20690;-63
2022/11/20 03:27:29;;;;;;;;;4.00;4.00;;;;;19.94;51.70;100441.33;105718;1290;19935;-62
2022/11/20 03:29:57;;;;;;;;;3.00;2.00;;;;;19.96;51.50;100441.35;105668;1295;20004;-63
2022/11/20 03:32:24;;;;;;;;;4.00;4.00;;;;;19.94;51.58;100440.45;105711;1290;22031;-63
2022/11/20 03:34:52;;;;;;;;;3.00;3.00;;;;;19.94;51.42;100437.73;105669;1281;19584;-61
2022/11/20 03:37:19;;;;;;;;;2.00;2.00;;;;;19.94;51.53;100439.70;105727;1297;18511;-63
2022/11/20 03:39:47;;;;;;;;;5.00;4.50;;;;;19.94;51.41;100436.51;105687;1279;21490;-62
2022/11/20 03:44:55;;;;;;;;;4.00;4.00;;;;;19.94;51.50;100433.95;105729;1289;22376;-63
2022/11/20 03:47:23;;;;;;;;;2.00;2.00;;;;;19.94;51.37;100435.29;105687;1271;19441;-64
2022/11/20 03:49:50;;;;;;;;;2.00;2.00;;;;;19.94;51.45;100434.84;105707;1294;21742;-64
2022/11/20 03:52:18;;;;;;;;;4.00;4.00;;;;;19.94;51.38;100436.34;105719;1297;19963;-63
2022/11/20 03:54:45;;;;;;;;;4.50;4.00;;;;;19.93;51.35;100429.76;105692;1298;19508;-63
2022/11/20 03:57:12;;;;;;;;;4.00;4.00;;;;;19.93;51.53;100433.15;105646;1288;18521;-63
2022/11/20 03:59:40;;;;;;;;;4.00;4.00;;;;;19.93;51.42;100432.77;105643;1272;22734;-63
2022/11/20 04:02:07;;;;;;;;;5.00;5.00;;;;;19.93;51.24;100432.64;105668;1297;19304;-63
2022/11/20 04:04:35;;;;;;;;;4.00;4.00;;;;;19.94;51.37;100438.89;105606;1280;18359;-63
2022/11/20 04:07:02;;;;;;;;;4.00;4.00;;;;;19.93;51.21;100438.80;105695;1294;19186;-62
2022/11/20 04:09:30;;;;;;;;;7.00;4.00;;;;;19.93;51.22;100439.52;105685;1288;19364;-63
2022/11/20 04:11:57;;;;;;;;;4.00;4.00;;;;;19.92;51.38;100436.01;105671;1272;22126;-63
2022/11/20 04:14:24;;;;;;;;;4.50;3.00;;;;;19.93;51.30;100430.80;105671;1297;20139;-63
2022/11/20 04:16:52;;;;;;;;;3.00;3.00;;;;;19.93;51.21;100428.67;105693;1287;19382;-62
2022/11/20 04:19:19;;;;;;;;;2.00;2.00;;;;;19.93;51.13;100431.73;105730;1296;19918;-62
2022/11/20 04:21:47;;;;;;;;;2.00;2.00;;;;;19.92;51.27;100427.16;105695;1297;18560;-60
2022/11/20 04:24:14;;;;;;;;;3.00;2.00;;;;;19.92;51.18;100423.73;105705;1287;19596;-64
2022/11/20 04:26:42;;;;;;;;;4.00;4.00;;;;;19.92;51.00;100422.61;105637;1297;18536;-61
2022/11/20 04:29:09;;;;;;;;;4.00;4.00;;;;;19.93;51.27;100417.63;105717;1288;18556;-62
2022/11/20 04:31:36;;;;;;;;;4.00;4.00;;;;;19.92;51.20;100415.52;105675;1280;19484;-62
2022/11/20 04:34:04;;;;;;;;;4.00;2.00;;;;;19.92;51.11;100415.71;105754;1290;19920;-64
2022/11/20 04:36:31;;;;;;;;;4.00;4.00;;;;;19.91;51.18;100417.45;105661;1297;21794;-62
2022/11/20 04:38:59;;;;;;;;;3.00;3.00;;;;;19.91;51.08;100420.34;105686;1279;20783;-62
2022/11/20 04:41:26;;;;;;;;;2.00;2.00;;;;;19.91;51.18;100421.25;105661;1272;22323;-61
2022/11/20 04:43:58;;;;;;;;;4.00;2.00;;;;;19.92;51.23;100417.92;105640;1271;18591;-63
2022/11/20 04:46:26;;;;;;;;;2.00;2.00;;;;;19.91;51.16;100419.75;105681;1296;19295;-62
2022/11/20 04:48:53;;;;;;;;;2.00;2.00;;;;;19.91;50.99;100421.80;105729;1272;19621;-63
2022/11/20 04:51:21;;;;;;;;;2.00;2.00;;;;;19.91;51.04;100423.56;105699;1281;22340;-63
2022/11/20 04:53:48;;;;;;;;;7.00;4.00;;;;;19.91;50.94;100419.45;105692;1296;19217;-61
2022/11/20 04:56:15;;;;;;;;;4.00;4.00;;;;;19.90;50.92;100414.08;105677;1288;20761;-62
2022/11/20 04:58:43;;;;;;;;;4.00;2.00;;;;;19.90;51.09;100409.36;105668;1282;18525;-64
2022/11/20 05:01:10;;;;;;;;;5.00;5.00;;;;;19.91;50.94;100408.86;105749;1297;19429;-64
2022/11/20 05:03:38;;;;;;;;;4.00;4.00;;;;;19.90;50.93;100409.55;105692;1280;19606;-64
2022/11/20 05:06:05;;;;;;;;;3.00;3.00;;;;;19.91;51.18;100412.04;105685;1295;20183;-63
2022/11/20 05:08:33;;;;;;;;;4.00;4.00;;;;;19.92;50.94;100416.66;105648;1286;21106;-64
2022/11/20 05:11:00;;;;;;;;;2.00;2.00;;;;;19.90;51.05;100416.46;105683;1279;18367;-64
2022/11/20 05:13:27;;;;;;;;;4.00;2.00;;;;;19.90;51.02;100418.10;105675;1295;18666;-64
2022/11/20 05:15:55;;;;;;;;;4.00;4.00;;;;;19.92;50.97;100419.21;105705;1297;19372;-64
2022/11/20 05:18:22;;;;;;;;;5.00;2.00;;;;;19.89;51.11;100412.94;105662;1295;20763;-63
2022/11/20 05:20:50;;;;;;;;;2.00;2.00;;;;;19.89;51.08;100414.20;105691;1295;19900;-63
2022/11/20 05:23:17;;;;;;;;;5.00;4.00;;;;;19.89;51.06;100412.43;105655;1282;20603;-62
2022/11/20 05:25:45;;;;;;;;;2.00;2.00;;;;;19.89;50.85;100409.30;105675;1290;22686;-65
2022/11/20 05:28:12;;;;;;;;;5.00;4.00;;;;;19.89;50.92;100409.34;105739;1297;20161;-64
2022/11/20 05:30:39;;;;;;;;;2.00;2.00;;;;;19.89;50.91;100407.11;105739;1297;19486;-64
2022/11/20 05:33:07;;;;;;;;;2.00;2.00;;;;;19.88;51.04;100404.34;105669;1288;19869;-63
2022/11/20 05:35:34;;;;;;;;;4.00;4.00;;;;;19.89;50.98;100403.94;105715;1292;23033;-63
2022/11/20 05:38:02;;;;;;;;;4.00;4.00;;;;;19.89;51.04;100396.27;105697;1297;20920;-62
2022/11/20 05:40:29;;;;;;;;;2.00;2.00;;;;;19.89;50.97;100393.98;105706;1287;19884;-64
2022/11/20 05:42:57;;;;;;;;;4.00;4.00;;;;;19.88;51.01;100396.02;105736;1295;20140;-65
2022/11/20 05:45:24;;;;;;;;;4.00;2.00;;;;;19.87;50.80;100393.95;105626;1288;20767;-64
2022/11/20 05:47:51;;;;;;;;;4.00;4.00;;;;;19.88;50.71;100398.40;105681;1289;18399;-64
2022/11/20 05:50:19;;;;;;;;;;;;;;;19.88;50.82;100401.90;105697;1297;18968;-63
2022/11/20 05:52:46;;;;;;;;;2.00;2.00;;;;;19.88;50.96;100404.38;105672;1295;20778;-62
2022/11/20 05:55:14;;;;;;;;;4.00;2.00;;;;;19.88;50.81;100404.59;105713;1297;18429;-62
2022/11/20 05:57:41;;;;;;;;;5.00;2.00;;;;;19.87;51.00;100403.58;105737;1279;18865;-64
2022/11/20 06:00:09;;;;;;;;;4.00;4.00;;;;;19.87;50.97;100396.70;105736;1279;19634;-64
2022/11/20 06:02:36;;;;;;;;;4.00;4.00;;;;;19.87;50.68;100392.02;105726;1297;18436;-63
2022/11/20 06:05:04;;;;;;;;;4.00;2.00;;;;;19.87;50.89;100389.27;105721;1275;18826;-64
2022/11/20 06:07:31;;;;;;;;;4.00;4.00;;;;;19.87;50.93;100392.77;105699;1296;23392;-64
2022/11/20 06:09:59;;;;;;;;;4.00;4.00;;;;;19.87;51.02;100396.54;105708;1297;22712;-64
2022/11/20 06:12:26;;;;;;;;;2.00;2.00;;;;;19.88;50.84;100401.19;105704;1297;20289;-64
2022/11/20 06:14:54;;;;;;;;;4.00;4.00;;;;;19.87;50.64;100399.05;105710;1271;21071;-64
2022/11/20 06:17:21;;;;;;;;;3.00;3.00;;;;;19.86;50.92;100397.31;105726;1289;18519;-64
2022/11/20 06:19:48;;;;;;;;;2.67;2.67;;;;;19.87;50.84;100401.27;105697;1293;20886;-63
2022/11/20 06:22:16;;;;;;;;;4.00;4.00;;;;;19.87;50.70;100399.65;105719;1279;20785;-63
2022/11/20 06:24:43;;;;;;;;;5.00;4.00;;;;;19.86;50.87;100400.27;105706;1295;19866;-63
2022/11/20 06:27:11;;;;;;;;;4.00;4.00;;;;;19.87;50.74;100404.14;105698;1297;18575;-63
2022/11/20 06:29:38;;;;;;;;;2.00;2.00;;;;;19.86;50.61;100401.36;105698;1279;22677;-63
2022/11/20 06:32:06;;;;;;;;;4.00;4.00;;;;;19.86;50.51;100398.06;105737;1297;18314;-62
2022/11/20 06:34:33;;;;;;;;;4.50;3.00;;;;;19.87;50.73;100400.20;105632;1294;20146;-59
2022/11/20 06:37:01;;;;;;;;;4.00;2.00;;;;;19.86;50.81;100397.52;105693;1296;19403;-63
2022/11/20 06:39:28;;;;;;;;;4.50;4.00;;;;;19.86;50.69;100394.70;105667;1279;23799;-61
2022/11/20 06:41:57;;;;;;;;;4.00;4.00;;;;;19.85;50.72;100392.94;105667;1271;18858;-63
2022/11/20 06:44:24;;;;;;;;;6.00;5.00;;;;;19.86;50.69;100394.85;105653;1297;19324;-64
2022/11/20 06:46:52;;;;;;;;;2.00;2.00;;;;;19.85;50.64;100397.33;105689;1281;19613;-63
2022/11/20 06:49:19;;;;;;;;;4.00;2.00;;;;;19.86;50.69;100403.16;105732;1296;20218;-64
2022/11/20 06:51:46;;;;;;;;;4.00;4.00;;;;;19.85;50.60;100400.52;105617;1297;19296;-59
2022/11/20 06:54:14;;;;;;;;;2.00;2.00;;;;;19.85;50.80;100395.44;105631;1274;19569;-63
2022/11/20 06:56:41;;;;;;;;;4.00;4.00;;;;;19.85;50.58;100391.71;105671;1272;18533;-63
2022/11/20 06:59:09;;;;;;;;;5.00;5.00;;;;;19.86;50.69;100393.94;105670;1279;20736;-63
2022/11/20 07:01:36;;;;;;;;;4.00;4.00;;;;;19.86;50.64;100394.45;105687;1271;21913;-63
2022/11/20 07:04:04;;;;;;;;;4.00;4.00;;;;;19.85;50.48;100393.84;105681;1297;18547;-63
2022/11/20 07:06:31;;;;;;;;;5.00;5.00;;;;;19.86;50.50;100392.89;105678;1297;19319;-63
2022/11/20 07:08:59;;;;;;;;;5.00;5.00;;;;;19.85;50.50;100388.59;105679;1297;24318;-64
2022/11/20 07:11:26;;;;;;;;;2.00;2.00;;;;;19.85;50.57;100386.98;105653;1289;18535;-61
2022/11/20 07:13:54;;;;;;;;;2.00;2.00;;;;;19.85;50.54;100385.19;105609;1282;22280;-62
2022/11/20 07:16:21;;;;;;;;;4.00;4.00;;;;;19.86;50.66;100387.27;105677;1295;19534;-63
2022/11/20 07:18:48;;;;;;;;;4.00;4.00;;;;;19.85;50.49;100389.84;105518;1288;33945;-64
2022/11/20 07:21:16;;;;;;;;;5.00;5.00;;;;;19.86;50.49;100387.63;105671;1289;19179;-62
2022/11/20 07:23:43;;;;;;;;;2.00;2.00;;;;;19.86;50.73;100387.98;105678;1279;18589;-64
2022/11/20 07:26:11;;;;;;;;;2.00;2.00;;;;;19.87;50.46;100386.21;105681;1281;18527;-65
2022/11/20 07:28:38;;;;;;;;;4.00;4.00;;;;;19.89;50.71;100386.20;105694;1293;19477;-63
2022/11/20 07:31:06;;;;;;;;;4.00;4.00;;;;;19.91;50.45;100387.56;105718;1297;19635;-63
2022/11/20 07:33:33;;;;;;;;;4.00;4.00;;;;;19.92;50.54;100389.77;105678;1296;20035;-65
2022/11/20 07:36:01;;;;;;;;;4.00;4.00;;;;;19.94;50.84;100392.77;105671;1280;19295;-64
2022/11/20 07:38:28;;;;;;;;;5.00;5.00;;;;;19.96;51.31;100385.42;105641;1286;23507;-65
2022/11/20 07:40:57;;;;;;;;;;;;;;;19.98;51.58;100386.33;105701;1297;18509;-64
2022/11/20 07:43:25;;;;;;;;;4.00;4.00;;;;;19.98;51.65;100385.41;105731;1295;20660;-65
2022/11/20 07:45:52;;;;;;;;;4.00;4.00;;;;;19.98;51.81;100383.26;105649;1295;18326;-65
2022/11/20 07:48:19;;;;;;;;;4.00;4.00;;;;;19.99;51.67;100382.79;105622;1297;18483;-66
2022/11/20 07:50:47;;;;;;;;;4.00;4.00;;;;;20.00;51.80;100387.50;105623;1295;19332;-65
2022/11/20 07:53:20;;;;;;;;;4.50;3.00;;;;;20.02;51.60;100389.12;105617;1297;22495;-64
2022/11/20 07:55:47;;;;;;;;;4.00;3.00;;;;;20.02;51.99;100386.43;105615;1295;22080;-64
2022/11/20 07:58:15;;;;;;;;;4.50;4.00;;;;;20.03;52.18;100386.48;105663;1288;19510;-65
2022/11/20 08:00:42;;;;;;;;;4.00;4.00;;;;;20.04;52.19;100386.42;105681;1279;18410;-62
2022/11/20 08:03:10;;;;;;;;;5.00;4.00;;;;;20.06;52.23;100387.68;105640;1288;19951;-65
2022/11/20 08:05:38;;;;;;;;;4.00;2.00;;;;;20.05;52.22;100383.77;105667;1297;19260;-62
2022/11/20 08:08:06;;;;;;;;;4.00;4.00;;;;;20.03;52.57;100383.09;105773;1288;18620;-63
2022/11/20 08:10:34;;;;;;;;;2.00;2.00;;;;;20.04;52.44;100381.86;105654;1271;19379;-63
2022/11/20 08:15:46;;;;;;;;;5.00;4.00;;;;;20.05;52.58;100384.89;105659;1288;20863;-62
2022/11/20 08:18:14;;;;;;;;;4.00;4.00;;;;;20.03;52.61;100384.65;105639;1279;18525;-64
2022/11/20 08:20:41;;;;;;;;;2.00;2.00;;;;;20.03;52.53;100377.65;105676;1279;19506;-62
2022/11/20 08:23:09;;;;;;;;;2.00;2.00;;;;;20.01;52.48;100374.70;105628;1297;19556;-63
2022/11/20 08:25:36;;;;;;;;;4.00;4.00;;;;;20.00;52.62;100370.88;105700;1300;18862;-63
2022/11/20 08:28:04;;;;;;;;;4.00;4.00;;;;;19.98;52.85;100368.55;105737;1297;20735;-62
2022/11/20 08:30:31;;;;;;;;;4.00;2.00;;;;;19.95;52.91;100366.69;105637;1272;19756;-62
2022/11/20 08:32:58;;;;;;;;;4.00;4.00;;;;;19.95;52.66;100363.26;105687;1294;19776;-63
2022/11/20 08:35:26;;;;;;;;;4.00;4.00;;;;;20.00;52.49;100367.79;105683;1295;19417;-62
2022/11/20 08:37:53;;;;;;;;;4.00;2.00;;;;;20.03;52.43;100363.62;105636;1295;18398;-60
2022/11/20 08:40:21;;;;;;;;;5.00;4.00;;;;;20.07;52.64;100359.91;105644;1295;19962;-64
2022/11/20 08:42:48;;;;;;;;;5.00;5.00;;;;;20.08;52.43;100362.48;105592;1271;20854;-63
2022/11/20 08:45:16;;;;;;;;;4.50;4.00;;;;;20.09;52.69;100360.60;105602;1285;18401;-62
2022/11/20 08:47:43;;;;;;;;;5.00;4.00;;;;;20.09;52.86;100360.64;105567;1271;19017;-62
2022/11/20 08:50:11;;;;;;;;;;;;;;;20.10;52.87;100358.35;105658;1285;19291;-65
2022/11/20 08:52:38;;;;;;;;;5.00;4.00;;;;;20.08;52.92;100355.08;105664;1284;19677;-65
2022/11/20 08:55:06;;;;;;;;;4.00;4.00;;;;;20.08;52.94;100353.85;105719;1300;25816;-62
2022/11/20 08:57:33;;;;;;;;;4.00;3.00;;;;;20.07;53.03;100356.35;105682;1297;19322;-64
2022/11/20 09:00:01;;;;;;;;;5.00;5.00;;;;;20.08;52.99;100356.58;105630;1274;18439;-63
2022/11/20 09:02:28;;;;;;;;;4.50;3.00;;;;;20.06;52.89;100350.98;105610;1279;19876;-62
2022/11/20 09:04:56;;;;;;;;;2.00;2.00;;;;;20.04;52.88;100353.91;105628;1295;19671;-62
2022/11/20 09:07:24;;;;;;;;;4.50;4.00;;;;;20.05;52.90;100353.13;105633;1297;18547;-62
2022/11/20 09:09:51;;;;;;;;;;;;;;;20.04;52.89;100350.52;105577;1279;18764;-62
2022/11/20 09:12:19;;;;;;;;;3.00;2.00;;;;;20.03;53.00;100351.52;105642;1295;20723;-63
2022/11/20 09:14:46;;;;;;;;;4.00;4.00;;;;;20.01;52.93;100346.21;105650;1294;19419;-62
2022/11/20 09:17:14;;;;;;;;;4.00;4.00;;;;;20.02;52.96;100341.27;105700;1279;18748;-64
2022/11/20 09:19:42;;;;;;;;;4.00;4.00;;;;;20.02;52.82;100339.61;105701;1297;19283;-65
2022/11/20 09:22:09;;;;;;;;;5.00;4.00;;;;;20.00;52.67;100335.10;105696;1297;19613;-64
2022/11/20 09:24:37;;;;;;;;;;;;;;;19.98;52.92;100330.77;105626;1274;19970;-62
2022/11/20 09:27:04;;;;;;;;;4.00;4.00;;;;;20.00;52.75;100330.45;105636;1295;20726;-65
2022/11/20 09:29:32;;;;;;;;;4.50;3.00;;;;;20.02;52.71;100332.20;105689;1282;18446;-63
2022/11/20 09:31:59;;;;;;;;;5.00;5.00;;;;;20.05;52.73;100332.66;105614;1289;21865;-64
2022/11/20 09:34:27;;;;;;;;;7.00;6.00;;;;;20.06;52.46;100329.80;105575;1298;21115;-65
2022/11/20 09:36:54;;;;;;;;;4.00;4.00;;;;;20.04;52.26;100333.58;105551;1281;18498;-64
2022/11/20 09:39:22;;;;;;;;;4.00;4.00;;;;;20.04;52.43;100331.63;105515;1288;22332;-64
2022/11/20 09:41:49;;;;;;;;;4.00;4.00;;;;;20.01;52.48;100321.77;105516;1300;19342;-64
2022/11/20 09:44:17;;;;;;;;;5.00;4.00;;;;;20.00;52.80;100320.08;105494;1297;18384;-63
2022/11/20 09:46:44;;;;;;;;;4.00;4.00;;;;;20.00;52.56;100322.45;105491;1282;18536;-62
2022/11/20 09:49:12;;;;;;;;;5.00;5.00;;;;;19.99;52.51;100321.52;105670;1297;20633;-62
2022/11/20 09:51:39;;;;;;;;;2.00;2.00;;;;;19.99;52.60;100323.69;105654;1287;23483;-62
2022/11/20 09:54:07;;;;;;;;;4.50;4.00;;;;;19.99;52.65;100325.33;105585;1272;18545;-62
2022/11/20 09:56:34;;;;;;;;;4.00;4.00;;;;;19.99;52.67;100323.61;105643;1297;19420;-62
2022/11/20 09:59:01;;;;;;;;;11.00;11.00;;;;;19.97;52.11;100327.10;105654;1281;19677;-63
2022/11/20 10:01:29;;;;;;;;;20.00;20.00;;;;;19.87;51.02;100327.41;105728;1287;22683;-64
2022/11/20 10:03:56;;;;;;;;;19.00;16.00;;;;;19.78;49.22;100323.61;105639;1279;19315;-63
2022/11/20 10:06:24;;;;;;;;;15.00;14.00;;;;;19.70;48.51;100321.82;105648;1279;19989;-61
2022/11/20 10:08:51;;;;;;;;;12.00;11.00;;;;;19.76;48.20;100317.95;105714;1280;18638;-61
2022/11/20 10:11:19;;;;;;;;;11.00;10.00;;;;;19.85;48.33;100319.16;105689;1290;20804;-62
2022/11/20 10:13:46;;;;;;;;;14.00;10.00;;;;;19.92;48.18;100315.08;105684;1296;20386;-64
2022/11/20 10:16:14;;;;;;;;;9.00;9.00;;;;;19.98;48.49;100317.77;105767;1296;22953;-64
2022/11/20 10:18:42;;;;;;;;;11.00;10.00;;;;;20.02;48.55;100315.16;105656;1280;19871;-64
2022/11/20 10:21:09;;;;;;;;;9.00;9.00;;;;;20.03;48.49;100313.76;105683;1296;22029;-63
2022/11/20 10:23:37;;;;;;;;;10.00;8.00;;;;;20.04;49.12;100310.73;105628;1297;19143;-64
2022/11/20 10:26:04;;;;;;;;;10.00;10.00;;;;;20.07;49.20;100309.48;105624;1282;20780;-66
2022/11/20 10:28:31;;;;;;;;;7.00;5.00;;;;;20.08;49.22;100307.35;105637;1279;24149;-65
2022/11/20 10:30:59;;;;;;;;;8.00;8.00;;;;;20.09;49.36;100306.48;105673;1280;19995;-60
2022/11/20 10:33:26;;;;;;;;;7.00;7.00;;;;;20.10;49.75;100303.53;105627;1279;19390;-63
2022/11/20 10:35:54;;;;;;;;;7.00;5.00;;;;;20.09;50.34;100303.43;105631;1295;18418;-64
2022/11/20 10:38:21;;;;;;;;;;;;;;;20.12;50.37;100303.83;105630;1295;18475;-64
2022/11/20 10:40:49;;;;;;;;;84.50;64.50;;;;;20.14;50.61;100300.89;105650;1297;19264;-62
2022/11/20 10:43:16;;;;;;;;;74.00;61.00;;;;;20.15;50.70;100305.64;105662;1294;18336;-62
2022/11/20 10:45:44;;;;;;;;;92.00;69.00;;;;;20.16;51.17;100305.73;105676;1297;18800;-64
2022/11/20 10:48:12;;;;;;;;;76.50;60.00;;;;;20.14;51.47;100303.98;105624;1287;22292;-63
2022/11/20 10:50:40;;;;;;;;;64.00;51.00;;;;;20.13;51.56;100298.75;105686;1297;18523;-64
2022/11/20 10:53:07;;;;;;;;;55.00;45.00;;;;;20.12;51.44;100299.23;105658;1297;18726;-64
2022/11/20 10:55:35;;;;;;;;;40.00;37.00;;;;;20.12;51.41;100296.02;105690;1289;19328;-65
2022/11/20 10:58:02;;;;;;;;;41.00;38.00;;;;;20.13;51.22;100298.44;105633;1292;18941;-65
2022/11/20 11:00:30;;;;;;;;;35.00;33.00;;;;;20.13;51.19;100299.54;105710;1288;18860;-66
2022/11/20 11:03:02;;;;;;;;;28.00;27.00;;;;;20.12;51.16;100298.52;105730;1274;19236;-64
2022/11/20 11:05:29;;;;;;;;;22.00;21.00;;;;;20.14;51.19;100299.08;105709;1281;20088;-64
2022/11/20 11:07:57;;;;;;;;;25.00;22.00;;;;;20.13;51.25;100295.52;105649;1288;18593;-64
2022/11/20 11:10:24;;;;;;;;;25.00;19.00;;;;;20.13;51.18;100297.86;105703;1297;22968;-64
2022/11/20 11:12:52;;;;;;;;;22.00;20.00;;;;;20.13;51.51;100294.39;105691;1297;18574;-60
2022/11/20 11:15:19;;;;;;;;;19.00;19.00;;;;;20.12;51.31;100292.73;105647;1290;20320;-66
2022/11/20 11:17:47;;;;;;;;;17.00;17.00;;;;;20.13;51.07;100290.31;105617;1281;19282;-63
2022/11/20 11:20:14;;;;;;;;;17.00;17.00;;;;;20.13;51.12;100286.23;105584;1279;22709;-64
2022/11/20 11:22:42;;;;;;;;;15.00;15.00;;;;;20.13;51.83;100285.90;105575;1295;18925;-65
2022/11/20 11:25:09;;;;;;;;;17.00;15.00;;;;;20.17;51.97;100289.05;105676;1272;20873;-63